| time (UTC) | temp F | wind direction | speed MPH | gust MPH | rain 1hr in | rain 24hr in | rain mn in | humidity % | barometer mb |
| 20260505184349 | 61 | 52 | 1.0 | 7.0 | 0.00 | 0.00 | 0.00 | 38 | |
| 20260505183849 | 60 | 80 | 0.0 | 8.0 | 0.00 | 0.00 | 0.00 | 40 | |
| 20260505183349 | 60 | 340 | 2.0 | 9.0 | 0.00 | 0.00 | 0.00 | 40 | |
| 20260505182849 | 60 | 310 | 8.0 | 9.0 | 0.00 | 0.00 | 0.00 | 39 | |
| 20260505182349 | 61 | 267 | 5.0 | 10.0 | 0.00 | 0.00 | 0.00 | 40 | |
| 20260505181849 | 61 | 307 | 4.0 | 10.0 | 0.00 | 0.00 | 0.00 | 38 | |
| 20260505181349 | 61 | 288 | 3.0 | 14.0 | 0.00 | 0.00 | 0.00 | 39 | |
| 20260505180849 | 61 | 288 | 6.0 | 12.0 | 0.00 | 0.00 | 0.00 | 38 | |
| 20260505180349 | 61 | 196 | 1.0 | 9.0 | 0.00 | 0.00 | 0.00 | 39 | |
| 20260505175850 | 60 | 344 | 0.0 | 10.0 | 0.00 | 0.00 | 0.00 | 41 | |
| 20260505175350 | 59 | 292 | 3.0 | 10.0 | 0.00 | 0.00 | 0.00 | 41 | |
| 20260505174850 | 59 | 198 | 1.0 | 7.0 | 0.00 | 0.00 | 0.00 | 40 | |
| 20260505174350 | 59 | 189 | 0.0 | 7.0 | 0.00 | 0.00 | 0.00 | 41 | |
| 20260505173850 | 58 | 229 | 1.0 | 11.0 | 0.00 | 0.00 | 0.00 | 41 | |
| 20260505173350 | 59 | 299 | 1.0 | 7.0 | 0.00 | 0.00 | 0.00 | 40 | |
| 20260505172850 | 59 | 63 | 0.0 | 7.0 | 0.00 | 0.00 | 0.00 | 40 | |
| 20260505172350 | 59 | 180 | 4.0 | 10.0 | 0.00 | 0.00 | 0.00 | 40 | |
| 20260505171850 | 59 | 267 | 7.0 | 9.0 | 0.00 | 0.00 | 0.00 | 41 | |
| 20260505171350 | 59 | 16 | 3.0 | 10.0 | 0.00 | 0.00 | 0.00 | 39 | |
| 20260505170850 | 59 | 63 | 1.0 | 9.0 | 0.00 | 0.00 | 0.00 | 41 | |
| 20260505170350 | 58 | 322 | 0.0 | 11.0 | 0.00 | 0.00 | 0.00 | 40 | |
| 20260505165850 | 58 | 243 | 0.0 | 5.0 | 0.00 | 0.00 | 0.00 | 41 | |
| 20260505165350 | 57 | 77 | 3.0 | 9.0 | 0.00 | 0.00 | 0.00 | 42 | |
| 20260505164850 | 56 | 196 | 1.0 | 11.0 | 0.00 | 0.00 | 0.00 | 43 | |
| 20260505164350 | 56 | 350 | 4.0 | 6.0 | 0.00 | 0.00 | 0.00 | 43 | |
| 20260505163850 | 56 | 272 | 4.0 | 9.0 | 0.00 | 0.00 | 0.00 | 42 | |
| 20260505163350 | 56 | 338 | 8.0 | 8.0 | 0.00 | 0.00 | 0.00 | 42 | |
| 20260505162850 | 56 | 292 | 1.0 | 8.0 | 0.00 | 0.00 | 0.00 | 42 | |
| 20260505162350 | 56 | 288 | 2.0 | 5.0 | 0.00 | 0.00 | 0.00 | 42 | |
| 20260505161850 | 56 | 132 | 4.0 | 7.0 | 0.00 | 0.00 | 0.00 | 41 | |
| 20260505161350 | 56 | 258 | 2.0 | 8.0 | 0.00 | 0.00 | 0.00 | 41 | |
| 20260505160850 | 56 | 258 | 2.0 | 6.0 | 0.00 | 0.00 | 0.00 | 41 | |
| 20260505160350 | 56 | 268 | 2.0 | 11.0 | 0.00 | 0.00 | 0.00 | 41 | |
| 20260505153350 | 56 | 260 | 1.0 | 3.0 | 0.00 | 0.00 | 0.00 | 40 | |
| 20260505152850 | 56 | 35 | 0.0 | 5.0 | 0.00 | 0.00 | 0.00 | 41 | |
| 20260505152350 | 55 | 16 | 0.0 | 4.0 | 0.00 | 0.00 | 0.00 | 41 | |
| 20260505151850 | 55 | 323 | 0.0 | 5.0 | 0.00 | 0.00 | 0.00 | 40 | |
| 20260505151350 | 55 | 250 | 0.0 | 6.0 | 0.00 | 0.00 | 0.00 | 40 | |
| 20260505150850 | 55 | 8 | 0.0 | 7.0 | 0.00 | 0.00 | 0.00 | 39 | |
| 20260505150350 | 55 | 300 | 2.0 | 7.0 | 0.00 | 0.00 | 0.00 | 39 | |
| 20260505140350 | 46 | 330 | 0.0 | 0.0 | 0.00 | 0.00 | 0.00 | 60 | |
| 20260505124850 | 43 | 282 | 0.0 | 0.0 | 0.00 | 0.00 | 0.00 | 64 | |
| 20260505124350 | 43 | 282 | 0.0 | 3.0 | 0.00 | 0.00 | 0.00 | 63 | |
| 20260505123850 | 43 | 57 | 0.0 | 0.0 | 0.00 | 0.00 | 0.00 | 62 | |
| 20260505123350 | 43 | 57 | 0.0 | 0.0 | 0.00 | 0.00 | 0.00 | 63 | |
| 20260505122850 | 43 | 57 | 0.0 | 0.0 | 0.00 | 0.00 | 0.00 | 63 | |
| 20260505122350 | 43 | 57 | 0.0 | 0.0 | 0.00 | 0.00 | 0.00 | 64 | |
| 20260505121940 | 44 | 57 | 0.0 | 0.0 | 0.00 | 0.00 | 0.00 | 63 | |
| 20260505121850 | 44 | 57 | 0.0 | 0.0 | 0.00 | 0.00 | 0.00 | 63 | |
| 20260505121350 | 44 | 57 | 0.0 | 0.0 | 0.00 | 0.00 | 0.00 | 63 | |
| 20260505120850 | 44 | 57 | 0.0 | 0.0 | 0.00 | 0.00 | 0.00 | 62 | |
| 20260505120350 | 44 | 57 | 0.0 | 0.0 | 0.00 | 0.00 | 0.00 | 63 | |
| 20260505115850 | 44 | 57 | 0.0 | 0.0 | 0.00 | 0.00 | 0.00 | 60 | |
| 20260505115350 | 44 | 57 | 0.0 | 0.0 | 0.00 | 0.00 | 0.00 | 61 | |
| 20260505115010 | 44 | 57 | 0.0 | 0.0 | 0.00 | 0.00 | 0.00 | 60 | |
| 20260505114850 | 44 | 57 | 0.0 | 0.0 | 0.00 | 0.00 | 0.00 | 60 | |
| 20260505114350 | 44 | 57 | 0.0 | 0.0 | 0.00 | 0.00 | 0.00 | 61 | |
| 20260505113850 | 45 | 57 | 0.0 | 0.0 | 0.00 | 0.00 | 0.00 | 62 | |
| 20260505113350 | 45 | 57 | 0.0 | 0.0 | 0.00 | 0.00 | 0.00 | 61 | |
| 20260505112850 | 45 | 57 | 0.0 | 0.0 | 0.00 | 0.00 | 0.00 | 60 | |
| 20260505112350 | 46 | 57 | 0.0 | 0.0 | 0.00 | 0.00 | 0.00 | 59 | |
| 20260505111850 | 46 | 57 | 0.0 | 0.0 | 0.00 | 0.00 | 0.00 | 59 | |
| 20260505111350 | 46 | 57 | 0.0 | 0.0 | 0.00 | 0.00 | 0.00 | 58 | |
| 20260505110850 | 47 | 57 | 0.0 | 0.0 | 0.00 | 0.00 | 0.00 | 56 | |
| 20260505110350 | 47 | 57 | 0.0 | 0.0 | 0.00 | 0.00 | 0.00 | 56 | |
| 20260505101850 | 51 | 57 | 0.0 | 0.0 | 0.00 | 0.00 | 0.00 | 45 | |
| 20260505101350 | 52 | 57 | 0.0 | 0.0 | 0.00 | 0.00 | 0.00 | 42 | |
| 20260505101013 | 52 | 57 | 0.0 | 0.0 | 0.00 | 0.00 | 0.00 | 43 | |
| 20260505100933 | 52 | 57 | 0.0 | 0.0 | 0.00 | 0.00 | 0.00 | 43 | |
| 20260505100850 | 52 | 57 | 0.0 | 0.0 | 0.00 | 0.00 | 0.00 | 43 | |
| 20260505100350 | 52 | 57 | 0.0 | 3.0 | 0.00 | 0.00 | 0.00 | 42 | |
| 20260505100029 | 52 | 295 | 0.0 | 5.0 | 0.00 | 0.00 | 0.00 | 42 | |
| 20260505095850 | 52 | 295 | 0.0 | 5.0 | 0.00 | 0.00 | 0.00 | 42 | |
| 20260505095351 | 52 | 244 | 3.0 | 8.0 | 0.00 | 0.00 | 0.00 | 41 | |
| 20260505095001 | 53 | 354 | 0.0 | 0.0 | 0.00 | 0.00 | 0.00 | 40 | |
| 20260505094850 | 53 | 354 | 0.0 | 0.0 | 0.00 | 0.00 | 0.00 | 40 | |
| 20260505094353 | 54 | 354 | 0.0 | 2.0 | 0.00 | 0.00 | 0.00 | 40 | |
| 20260505093850 | 55 | 81 | 0.0 | 0.0 | 0.00 | 0.00 | 0.00 | 37 | |
| 20260505093350 | 55 | 81 | 0.0 | 8.0 | 0.00 | 0.00 | 0.00 | 35 | |
| 20260505092850 | 55 | 274 | 1.0 | 8.0 | 0.00 | 0.00 | 0.00 | 35 | |
| 20260505092350 | 55 | 227 | 7.0 | 10.0 | 0.00 | 0.00 | 0.00 | 34 | |
| 20260505091850 | 56 | 78 | 0.0 | 5.0 | 0.00 | 0.00 | 0.00 | 35 | |
| 20260505091350 | 56 | 175 | 2.0 | 6.0 | 0.00 | 0.00 | 0.00 | 35 | |
| 20260505090850 | 56 | 254 | 0.0 | 4.0 | 0.00 | 0.00 | 0.00 | 35 | |
| 20260505090431 | 56 | 319 | 0.0 | 3.0 | 0.00 | 0.00 | 0.00 | 35 | |
| 20260505090350 | 56 | 319 | 0.0 | 3.0 | 0.00 | 0.00 | 0.00 | 35 | |
| 20260505085850 | 56 | 210 | 0.0 | 5.0 | 0.00 | 0.00 | 0.00 | 35 | |
| 20260505085456 | 56 | 227 | 1.0 | 13.0 | 0.00 | 0.00 | 0.00 | 34 | |
| 20260505085350 | 56 | 227 | 1.0 | 13.0 | 0.00 | 0.00 | 0.00 | 34 | |
| 20260505084850 | 56 | 133 | 0.0 | 11.0 | 0.00 | 0.00 | 0.00 | 34 | |
| 20260505084350 | 57 | 288 | 0.0 | 6.0 | 0.00 | 0.00 | 0.00 | 33 | |
| 20260505083850 | 57 | 188 | 1.0 | 11.0 | 0.00 | 0.00 | 0.00 | 34 | |
| 20260505083350 | 57 | 264 | 6.0 | 6.0 | 0.00 | 0.00 | 0.00 | 33 | |
| 20260505083038 | 57 | 85 | 3.0 | 8.0 | 0.00 | 0.00 | 0.00 | 33 | |
| 20260505082850 | 57 | 85 | 3.0 | 8.0 | 0.00 | 0.00 | 0.00 | 33 | |
| 20260505082350 | 57 | 244 | 2.0 | 5.0 | 0.00 | 0.00 | 0.00 | 33 | |
| 20260505081850 | 57 | 289 | 1.0 | 11.0 | 0.00 | 0.00 | 0.00 | 33 | |
| 20260505081350 | 57 | 265 | 0.0 | 3.0 | 0.00 | 0.00 | 0.00 | 34 | |
| 20260505080851 | 57 | 310 | 3.0 | 10.0 | 0.00 | 0.00 | 0.00 | 33 | |
| 20260505080350 | 57 | 250 | 0.0 | 5.0 | 0.00 | 0.00 | 0.00 | 34 | |
| 20260505075851 | 57 | 105 | 0.0 | 6.0 | 0.00 | 0.00 | 0.00 | 34 | |
| 20260505075351 | 57 | 251 | 1.0 | 9.0 | 0.00 | 0.00 | 0.00 | 34 | |
| 20260505074850 | 57 | 302 | 2.0 | 10.0 | 0.00 | 0.00 | 0.00 | 34 | |
| 20260505074351 | 57 | 143 | 0.0 | 6.0 | 0.00 | 0.00 | 0.00 | 35 | |
| 20260505073851 | 57 | 105 | 0.0 | 10.0 | 0.00 | 0.00 | 0.00 | 35 | |
| 20260505073351 | 56 | 142 | 2.0 | 7.0 | 0.00 | 0.00 | 0.00 | 36 | |
| 20260505072851 | 56 | 130 | 0.0 | 0.0 | 0.00 | 0.00 | 0.00 | 38 | |
| 20260505072351 | 57 | 130 | 0.0 | 2.0 | 0.00 | 0.00 | 0.00 | 35 | |
| 20260505071851 | 57 | 147 | 2.0 | 8.0 | 0.00 | 0.00 | 0.00 | 35 | |
| 20260505071351 | 57 | 286 | 0.0 | 5.0 | 0.00 | 0.00 | 0.00 | 37 | |
| 20260505070851 | 57 | 42 | 0.0 | 6.0 | 0.00 | 0.00 | 0.00 | 37 | |
| 20260505070351 | 58 | 4 | 0.0 | 6.0 | 0.00 | 0.00 | 0.00 | 35 | |
| 20260505065851 | 58 | 208 | 5.0 | 10.0 | 0.00 | 0.00 | 0.00 | 34 | |
| 20260505065351 | 58 | 358 | 10.0 | 10.0 | 0.00 | 0.00 | 0.00 | 34 | |
| 20260505064851 | 58 | 358 | 2.0 | 8.0 | 0.00 | 0.00 | 0.00 | 34 | |
| 20260505064351 | 58 | 275 | 0.0 | 8.0 | 0.00 | 0.00 | 0.00 | 34 | |
| 20260505063851 | 58 | 230 | 3.0 | 9.0 | 0.00 | 0.00 | 0.00 | 34 | |
| 20260505063351 | 58 | 172 | 0.0 | 10.0 | 0.00 | 0.00 | 0.00 | 34 | |
| 20260505062851 | 58 | 220 | 6.0 | 14.0 | 0.00 | 0.00 | 0.00 | 34 | |
| 20260505062351 | 58 | 248 | 5.0 | 9.0 | 0.00 | 0.00 | 0.00 | 34 | |
| 20260505061851 | 58 | 268 | 5.0 | 12.0 | 0.00 | 0.00 | 0.00 | 33 | |
| 20260505061351 | 58 | 358 | 4.0 | 9.0 | 0.00 | 0.00 | 0.00 | 34 | |
| 20260505060851 | 58 | 9 | 2.0 | 11.0 | 0.00 | 0.00 | 0.00 | 34 | |
| 20260505060351 | 58 | 233 | 0.0 | 10.0 | 0.00 | 0.00 | 0.00 | 34 | |
| 20260505055851 | 58 | 203 | 3.0 | 14.0 | 0.00 | 0.00 | 0.00 | 34 | |
| 20260505055351 | 58 | 223 | 5.0 | 10.0 | 0.00 | 0.00 | 0.00 | 34 | |
| 20260505054851 | 59 | 309 | 0.0 | 7.0 | 0.00 | 0.00 | 0.00 | 34 | |
| 20260505054351 | 59 | 330 | 0.0 | 12.0 | 0.00 | 0.00 | 0.00 | 34 | |
| 20260505053851 | 58 | 295 | 3.0 | 10.0 | 0.00 | 0.00 | 0.00 | 34 | |
| 20260505053351 | 58 | 233 | 6.0 | 12.0 | 0.00 | 0.00 | 0.00 | 34 | |
| 20260505052922 | 59 | 248 | 6.0 | 11.0 | 0.00 | 0.00 | 0.00 | 34 | |
| 20260505052851 | 59 | 248 | 6.0 | 11.0 | 0.00 | 0.00 | 0.00 | 34 | |
| 20260505052351 | 59 | 68 | 3.0 | 10.0 | 0.00 | 0.00 | 0.00 | 33 | |
| 20260505051851 | 59 | 295 | 2.0 | 15.0 | 0.00 | 0.00 | 0.00 | 33 | |
| 20260505051351 | 59 | 205 | 3.0 | 15.0 | 0.00 | 0.00 | 0.00 | 33 | |
| 20260505050944 | 59 | 247 | 5.0 | 14.0 | 0.00 | 0.00 | 0.00 | 33 | |
| 20260505050851 | 59 | 247 | 5.0 | 14.0 | 0.00 | 0.00 | 0.00 | 33 | |
| 20260505050351 | 59 | 299 | 0.0 | 10.0 | 0.00 | 0.00 | 0.00 | 33 | |
| 20260505041351 | 59 | 315 | 8.0 | 13.0 | 0.00 | 0.00 | 0.00 | 29 | |
| 20260505040851 | 59 | 240 | 9.0 | 18.0 | 0.00 | 0.00 | 0.00 | 28 | |
| 20260505040351 | 60 | 279 | 0.0 | 15.0 | 0.00 | 0.00 | 0.00 | 28 | |
| 20260505035851 | 60 | 240 | 5.0 | 16.0 | 0.00 | 0.00 | 0.00 | 27 | |
| 20260505035826 | 62 | 302 | 2.0 | 7.0 | 0.00 | 0.00 | 0.00 | 22 | |
| 20260505035817 | 62 | 331 | 0.0 | 14.0 | 0.00 | 0.00 | 0.00 | 22 | |
| 20260505035807 | 62 | 246 | 0.0 | 6.0 | 0.00 | 0.00 | 0.00 | 22 | |
| 20260505035351 | 60 | 240 | 3.0 | 11.0 | 0.00 | 0.00 | 0.00 | 27 | |
| 20260505034851 | 60 | 268 | 7.0 | 17.0 | 0.00 | 0.00 | 0.00 | 27 | |
| 20260505034351 | 60 | 202 | 0.0 | 11.0 | 0.00 | 0.00 | 0.00 | 27 | |
| 20260505033851 | 60 | 213 | 6.0 | 15.0 | 0.00 | 0.00 | 0.00 | 26 | |
| 20260505033351 | 60 | 246 | 2.0 | 10.0 | 0.00 | 0.00 | 0.00 | 25 | |
| 20260505032851 | 60 | 247 | 1.0 | 12.0 | 0.00 | 0.00 | 0.00 | 25 | |
| 20260505032351 | 61 | 264 | 1.0 | 13.0 | 0.00 | 0.00 | 0.00 | 25 | |
| 20260505031851 | 61 | 250 | 3.0 | 17.0 | 0.00 | 0.00 | 0.00 | 25 | |
| 20260505031351 | 61 | 331 | 5.0 | 10.0 | 0.00 | 0.00 | 0.00 | 24 | |
| 20260505030851 | 61 | 171 | 3.0 | 7.0 | 0.00 | 0.00 | 0.00 | 24 | |
| 20260505030351 | 61 | 7 | 1.0 | 9.0 | 0.00 | 0.00 | 0.00 | 24 | |
| 20260505025851 | 61 | 281 | 4.0 | 8.0 | 0.00 | 0.00 | 0.00 | 23 | |
| 20260505025351 | 61 | 247 | 5.0 | 14.0 | 0.00 | 0.00 | 0.00 | 23 | |
| 20260505024851 | 61 | 312 | 2.0 | 11.0 | 0.00 | 0.00 | 0.00 | 23 | |
| 20260505024351 | 61 | 244 | 6.0 | 7.0 | 0.00 | 0.00 | 0.00 | 24 | |
| 20260505023851 | 61 | 227 | 5.0 | 14.0 | 0.00 | 0.00 | 0.00 | 22 | |
| 20260505023351 | 61 | 296 | 4.0 | 8.0 | 0.00 | 0.00 | 0.00 | 22 | |
| 20260505022851 | 62 | 344 | 0.0 | 16.0 | 0.00 | 0.00 | 0.00 | 23 | |
| 20260505022351 | 62 | 313 | 3.0 | 8.0 | 0.00 | 0.00 | 0.00 | 22 | |
| 20260505021851 | 62 | 302 | 2.0 | 7.0 | 0.00 | 0.00 | 0.00 | 22 | |
| 20260505021351 | 62 | 331 | 0.0 | 14.0 | 0.00 | 0.00 | 0.00 | 22 | |
| 20260505020851 | 62 | 246 | 0.0 | 6.0 | 0.00 | 0.00 | 0.00 | 22 | |
| 20260505020614 | 62 | 319 | 0.0 | 5.0 | 0.00 | 0.00 | 0.00 | 21 | |
| 20260505020351 | 62 | 226 | 3.0 | 7.0 | 0.00 | 0.00 | 0.00 | 21 | |
| 20260505015851 | 62 | 284 | 0.0 | 10.0 | 0.00 | 0.00 | 0.00 | 21 | |
| 20260505015351 | 62 | 319 | 0.0 | 5.0 | 0.00 | 0.00 | 0.00 | 21 | |
| 20260505014851 | 62 | 315 | 3.0 | 7.0 | 0.00 | 0.00 | 0.00 | 21 | |
| 20260505014351 | 63 | 251 | 3.0 | 13.0 | 0.00 | 0.00 | 0.00 | 21 | |
| 20260505013851 | 63 | 329 | 4.0 | 22.0 | 0.00 | 0.00 | 0.00 | 20 | |
| 20260505013351 | 63 | 257 | 0.0 | 15.0 | 0.00 | 0.00 | 0.00 | 20 | |
| 20260505012851 | 63 | 206 | 7.0 | 11.0 | 0.00 | 0.00 | 0.00 | 21 | |
| 20260505012351 | 63 | 288 | 2.0 | 14.0 | 0.00 | 0.00 | 0.00 | 21 | |
| 20260505011851 | 63 | 317 | 7.0 | 11.0 | 0.00 | 0.00 | 0.00 | 20 | |
| 20260505011351 | 63 | 315 | 0.0 | 9.0 | 0.00 | 0.00 | 0.00 | 21 | |
| 20260505010851 | 63 | 309 | 0.0 | 11.0 | 0.00 | 0.00 | 0.00 | 22 | |
| 20260505010351 | 63 | 255 | 2.0 | 7.0 | 0.00 | 0.00 | 0.00 | 21 | |
| 20260505005851 | 63 | 310 | 3.0 | 8.0 | 0.00 | 0.00 | 0.00 | 21 | |
| 20260505005351 | 63 | 18 | 0.0 | 6.0 | 0.00 | 0.00 | 0.00 | 22 | |
| 20260505004851 | 63 | 258 | 0.0 | 12.0 | 0.00 | 0.00 | 0.00 | 21 | |
| 20260505004351 | 64 | 347 | 4.0 | 9.0 | 0.00 | 0.00 | 0.00 | 21 | |
| 20260505003851 | 63 | 251 | 2.0 | 12.0 | 0.00 | 0.00 | 0.00 | 21 | |
| 20260505003351 | 64 | 234 | 4.0 | 6.0 | 0.00 | 0.00 | 0.00 | 22 | |
| 20260505002852 | 64 | 226 | 3.0 | 8.0 | 0.00 | 0.00 | 0.00 | 21 | |
| 20260505002351 | 64 | 272 | 3.0 | 15.0 | 0.00 | 0.00 | 0.00 | 22 | |
| 20260505001852 | 64 | 229 | 6.0 | 9.0 | 0.00 | 0.00 | 0.00 | 22 | |
| 20260505001351 | 64 | 260 | 4.0 | 10.0 | 0.00 | 0.00 | 0.00 | 22 | |
| 20260505000851 | 64 | 289 | 6.0 | 14.0 | 0.00 | 0.00 | 0.00 | 22 | |
| 20260505000351 | 64 | 310 | 3.0 | 11.0 | 0.00 | 0.00 | 0.00 | 22 | |
| 20260504235851 | 64 | 233 | 4.0 | 12.0 | 0.00 | 0.00 | 0.00 | 22 | |
| 20260504235351 | 64 | 7 | 3.0 | 9.0 | 0.00 | 0.00 | 0.00 | 21 | |
| 20260504234851 | 64 | 236 | 2.0 | 11.0 | 0.00 | 0.00 | 0.00 | 21 | |
| 20260504234351 | 65 | 267 | 0.0 | 9.0 | 0.00 | 0.00 | 0.00 | 21 | |
| 20260504233851 | 64 | 291 | 4.0 | 12.0 | 0.00 | 0.00 | 0.00 | 21 | |
| 20260504233351 | 64 | 222 | 6.0 | 15.0 | 0.00 | 0.00 | 0.00 | 20 | |
| 20260504232851 | 64 | 282 | 2.0 | 13.0 | 0.00 | 0.00 | 0.00 | 21 | |
| 20260504232351 | 65 | 223 | 9.0 | 13.0 | 0.00 | 0.00 | 0.00 | 20 | |
| 20260504231851 | 64 | 289 | 5.0 | 18.0 | 0.00 | 0.00 | 0.00 | 20 | |
| 20260504231351 | 64 | 358 | 5.0 | 13.0 | 0.00 | 0.00 | 0.00 | 19 | |
| 20260504230851 | 64 | 202 | 6.0 | 16.0 | 0.00 | 0.00 | 0.00 | 19 | |
| 20260504230351 | 65 | 277 | 5.0 | 13.0 | 0.00 | 0.00 | 0.00 | 18 | |
| 20260504225851 | 65 | 261 | 7.0 | 10.0 | 0.00 | 0.00 | 0.00 | 18 | |
| 20260504225351 | 65 | 288 | 4.0 | 12.0 | 0.00 | 0.00 | 0.00 | 17 | |
| 20260504224851 | 65 | 312 | 6.0 | 15.0 | 0.00 | 0.00 | 0.00 | 17 | |
| 20260504224351 | 65 | 250 | 5.0 | 14.0 | 0.00 | 0.00 | 0.00 | 17 | |
| 20260504223851 | 66 | 98 | 1.0 | 7.0 | 0.00 | 0.00 | 0.00 | 16 | |
| 20260504223351 | 66 | 265 | 3.0 | 11.0 | 0.00 | 0.00 | 0.00 | 16 | |
| 20260504222851 | 66 | 312 | 10.0 | 10.0 | 0.00 | 0.00 | 0.00 | 15 | |
| 20260504222351 | 66 | 243 | 0.0 | 15.0 | 0.00 | 0.00 | 0.00 | 16 | |
| 20260504221851 | 66 | 303 | 11.0 | 19.0 | 0.00 | 0.00 | 0.00 | 16 | |
| 20260504221351 | 67 | 234 | 4.0 | 12.0 | 0.00 | 0.00 | 0.00 | 15 | |
| 20260504220851 | 66 | 277 | 7.0 | 11.0 | 0.00 | 0.00 | 0.00 | 16 | |
| 20260504220352 | 67 | 84 | 1.0 | 18.0 | 0.00 | 0.00 | 0.00 | 16 | |
| 20260504215851 | 66 | 338 | 2.0 | 14.0 | 0.00 | 0.00 | 0.00 | 15 | |
| 20260504215351 | 66 | 291 | 3.0 | 15.0 | 0.00 | 0.00 | 0.00 | 17 | |
| 20260504214853 | 66 | 251 | 1.0 | 18.0 | 0.00 | 0.00 | 0.00 | 16 | |
| 20260504214352 | 67 | 196 | 3.0 | 10.0 | 0.00 | 0.00 | 0.00 | 17 | |
| 20260504213852 | 66 | 240 | 5.0 | 11.0 | 0.00 | 0.00 | 0.00 | 17 | |
| 20260504213642 | 66 | 237 | 7.0 | 24.0 | 0.00 | 0.00 | 0.00 | 18 | |
| 20260504213352 | 66 | 237 | 7.0 | 24.0 | 0.00 | 0.00 | 0.00 | 18 | |
| 20260504212852 | 66 | 7 | 21.0 | 23.0 | 0.00 | 0.00 | 0.00 | 17 | |
| 20260504212352 | 67 | 275 | 3.0 | 20.0 | 0.00 | 0.00 | 0.00 | 18 | |
| 20260504211852 | 66 | 299 | 5.0 | 14.0 | 0.00 | 0.00 | 0.00 | 18 | |
| 20260504211352 | 67 | 341 | 7.0 | 11.0 | 0.00 | 0.00 | 0.00 | 19 | |
| 20260504210852 | 67 | 305 | 2.0 | 16.0 | 0.00 | 0.00 | 0.00 | 17 | |
| 20260504210352 | 67 | 340 | 10.0 | 19.0 | 0.00 | 0.00 | 0.00 | 19 | |
| 20260504205852 | 67 | 227 | 18.0 | 20.0 | 0.00 | 0.00 | 0.00 | 18 | |
| 20260504205352 | 67 | 18 | 10.0 | 23.0 | 0.00 | 0.00 | 0.00 | 18 | |
| 20260504204852 | 67 | 286 | 4.0 | 15.0 | 0.00 | 0.00 | 0.00 | 18 | |
| 20260504204352 | 67 | 291 | 3.0 | 19.0 | 0.00 | 0.00 | 0.00 | 18 | |
| 20260504203852 | 66 | 333 | 1.0 | 21.0 | 0.00 | 0.00 | 0.00 | 19 | |
| 20260504203352 | 66 | 352 | 11.0 | 18.0 | 0.00 | 0.00 | 0.00 | 19 | |
| 20260504202852 | 66 | 347 | 6.0 | 18.0 | 0.00 | 0.00 | 0.00 | 18 | |
| 20260504202352 | 66 | 257 | 6.0 | 15.0 | 0.00 | 0.00 | 0.00 | 18 | |
| 20260504201852 | 66 | 337 | 3.0 | 16.0 | 0.00 | 0.00 | 0.00 | 18 | |
| 20260504201352 | 67 | 348 | 2.0 | 20.0 | 0.00 | 0.00 | 0.00 | 19 | |
| 20260504200852 | 67 | 199 | 10.0 | 22.0 | 0.00 | 0.00 | 0.00 | 19 | |
| 20260504200352 | 66 | 229 | 11.0 | 19.0 | 0.00 | 0.00 | 0.00 | 19 | |
| 20260504195852 | 67 | 277 | 5.0 | 17.0 | 0.00 | 0.00 | 0.00 | 16 | |
| 20260504195352 | 67 | 275 | 1.0 | 14.0 | 0.00 | 0.00 | 0.00 | 17 | |
| 20260504194852 | 67 | 271 | 3.0 | 11.0 | 0.00 | 0.00 | 0.00 | 17 | |
| 20260504194352 | 67 | 289 | 5.0 | 18.0 | 0.00 | 0.00 | 0.00 | 18 | |
| 20260504193852 | 67 | 322 | 8.0 | 15.0 | 0.00 | 0.00 | 0.00 | 18 | |
| 20260504193352 | 66 | 160 | 14.0 | 19.0 | 0.00 | 0.00 | 0.00 | 18 | |
| 20260504192852 | 65 | 265 | 7.0 | 24.0 | 0.00 | 0.00 | 0.00 | 18 | |
| 20260504192352 | 67 | 334 | 18.0 | 18.0 | 0.00 | 0.00 | 0.00 | 18 | |
| 20260504191852 | 66 | 244 | 7.0 | 19.0 | 0.00 | 0.00 | 0.00 | 19 | |
| 20260504191352 | 66 | 253 | 8.0 | 16.0 | 0.00 | 0.00 | 0.00 | 20 | |
| 20260504190852 | 66 | 229 | 5.0 | 16.0 | 0.00 | 0.00 | 0.00 | 20 | |
| 20260504190352 | 65 | 11 | 3.0 | 20.0 | 0.00 | 0.00 | 0.00 | 23 | |
| 20260504185852 | 64 | 156 | 11.0 | 20.0 | 0.00 | 0.00 | 0.00 | 21 | |
| 20260504185352 | 65 | 255 | 8.0 | 21.0 | 0.00 | 0.00 | 0.00 | 22 | |
| 20260504184852 | 65 | 277 | 7.0 | 14.0 | 0.00 | 0.00 | 0.00 | 22 |